Latest Coastal Weather Observations for Kiama

IDN60701

Issued at 3:41 pm EST Saturday 5 September 2015 (issued every 10 minutes, with the page automatically refreshed every 10 minutes)

About coastal observations | Map of coastal stations | Coastal observations for NSW | Marine services | Other Formats
Station Details ID: 068242 Name: KIAMA (BOMBO HEADLAND) Lat: -34.65 Lon: 150.86 Height: 15.5 m
Data from the previous 72 hours. | See also: Recent months at Kiama
Date/Time
EST
Temp

°C
Wind Pressure Rain
since 9am
mm
Weather Cloud Vis
km
Sea
Height
m
Swell
Dir
 
Speed
knots
Gust
knots
hPa Trend Height
m
Period
s
Dir
05/03:30pm 16.2 S 10 13 - - 0.0 - - - - - - -
05/03:00pm 15.9 SE 11 14 - - 0.0 - - - - - - -
05/02:30pm 16.2 SSE 11 15 - - 0.0 - - - - - - -
05/02:00pm 16.1 SSE 14 15 - - 0.0 - - - - - - -
05/01:30pm 16.6 SSE 15 17 - - 0.0 - - - - - - -
05/01:00pm 16.2 SSE 15 17 - - 0.0 - - - - - - -
05/12:30pm 16.3 S 15 18 - - 0.0 - - - - - - -
05/12:00pm 16.4 SSE 13 17 - - 0.0 - - - - - - -
05/11:30am 16.3 SSE 13 16 - - 0.0 - - - - - - -
05/11:00am 16.2 S 12 18 - - 0.0 - - - - - - -
05/10:30am 16.2 S 13 18 - - 0.0 - - - - - - -
05/10:00am 16.4 S 9 12 - - 0.0 - - - - - - -
05/09:30am 15.8 SSW 10 13 - - 0.0 - - - - - - -
05/09:00am 15.5 S 9 12 - - 0.0 - - - - - - -
05/08:30am 14.8 SE 2 4 - - 0.0 - - - - - - -
05/08:00am 14.2 CALM 0 1 - - 0.0 - - - - - - -
05/07:30am 12.5 CALM 0 0 - - 0.0 - - - - - - -
05/07:00am 11.7 WSW 1 3 - - 0.0 - - - - - - -
05/06:30am 10.8 SW 1 2 - - 0.0 - - - - - - -
05/06:00am 10.8 SW 1 3 - - 0.0 - - - - - - -
05/05:30am 11.0 SW 2 3 - - 0.0 - - - - - - -
05/05:00am 11.3 W 3 4 - - 0.0 - - - - - - -
05/04:30am 11.3 WSW 1 2 - - 0.0 - - - - - - -
05/04:00am 11.4 WSW 1 2 - - 0.0 - - - - - - -
05/03:30am 11.7 WSW 1 2 - - 0.0 - - - - - - -
05/03:00am 11.9 SSW 2 3 - - 0.0 - - - - - - -
05/02:30am 12.4 W 5 6 - - 0.0 - - - - - - -
05/02:00am 12.1 WNW 5 6 - - 0.0 - - - - - - -
05/01:30am 12.3 WNW 5 6 - - 0.0 - - - - - - -
05/01:00am 12.5 W 3 3 - - 0.0 - - - - - - -
05/12:30am 12.8 CALM 0 0 - - 0.0 - - - - - - -
05/12:00am 13.4 SW 2 3 - - 0.0 - - - - - - -
 
Date/Time
EST
Temp

°C
Wind Pressure Rain
since 9am
mm
Weather Cloud Vis
km
Sea
Height
m
Swell
Dir
 
Speed
knots
Gust
knots
hPa Trend Height
m
Period
s
Dir
04/11:30pm 13.2 W 4 5 - - 0.0 - - - - - - -
04/11:00pm 12.9 W 5 6 - - 0.0 - - - - - - -
04/10:30pm 13.5 W 4 5 - - 0.0 - - - - - - -
04/10:00pm 13.3 W 4 5 - - 0.0 - - - - - - -
04/09:30pm 13.2 W 5 5 - - 0.0 - - - - - - -
04/09:00pm 12.9 W 5 6 - - 0.0 - - - - - - -
04/08:30pm 13.3 WNW 5 6 - - 0.0 - - - - - - -
04/08:00pm 13.5 WNW 4 5 - - 0.0 - - - - - - -
04/07:30pm 13.8 W 4 5 - - 0.0 - - - - - - -
04/07:00pm 13.6 WSW 3 3 - - 0.0 - - - - - - -
04/06:30pm 14.1 WSW 3 4 - - 0.0 - - - - - - -
04/06:00pm 15.0 SW 2 4 - - 0.0 - - - - - - -
04/05:30pm 15.6 SSW 4 6 - - 0.0 - - - - - - -
04/05:00pm 15.7 S 7 9 - - 0.0 - - - - - - -
04/04:30pm 15.8 S 8 10 - - 0.0 - - - - - - -
04/04:00pm 15.9 S 9 12 - - 0.0 - - - - - - -
04/03:30pm 16.2 S 9 12 - - 0.0 - - - - - - -
04/03:00pm 16.2 SSE 10 13 - - 0.0 - - - - - - -
04/02:30pm 16.0 S 9 13 - - 0.0 - - - - - - -
04/02:00pm 15.9 S 11 14 - - 0.0 - - - - - - -
04/01:30pm 15.8 S 12 15 - - 0.0 - - - - - - -
04/01:00pm 16.0 S 13 17 - - 0.0 - - - - - - -
04/12:30pm 16.2 S 12 18 - - 0.0 - - - - - - -
04/12:00pm 15.9 S 14 18 - - 0.0 - - - - - - -
04/11:30am 15.9 S 16 21 - - 0.0 - - - - - - -
04/11:00am 15.6 SSW 16 20 - - 0.0 - - - - - - -
04/10:30am 15.4 SSW 16 22 - - 0.0 - - - - - - -
04/10:00am 14.9 SSW 18 24 - - 0.0 - - - - - - -
04/09:30am 14.6 SSW 20 24 - - 0.0 - - - - - - -
04/09:00am 14.6 SSW 20 24 - - 5.2 - - - - - - -
04/08:30am 14.4 SSW 18 26 - - 5.2 - - - - - - -
04/08:00am 14.2 SSW 20 26 - - 5.2 - - - - - - -
04/07:30am 14.0 SW 17 23 - - 5.2 - - - - - - -
04/07:00am 14.0 SSW 15 20 - - 5.2 - - - - - - -
04/06:30am 13.9 SSW 16 22 - - 5.2 - - - - - - -
04/06:00am 13.8 SSW 18 23 - - 5.2 - - - - - - -
04/05:30am 13.9 SSW 16 22 - - 5.2 - - - - - - -
04/05:00am 13.7 SSW 18 26 - - 5.2 - - - - - - -
04/04:30am 13.5 SW 17 26 - - 5.2 - - - - - - -
04/04:00am 13.4 SSW 20 31 - - 5.2 - - - - - - -
04/03:56am 13.5 SSW 19 31 - - 5.2 - - - - - - -
04/03:30am 13.5 SSW 22 31 - - 5.2 - - - - - - -
04/03:03am 13.5 SW 21 31 - - 5.0 - - - - - - -
04/03:00am 13.5 SW 20 28 - - 5.0 Recent precip. - - - - - -
04/02:30am 13.3 SW 20 25 - - 5.0 - - - - - - -
04/02:00am 13.8 SSW 20 28 - - 4.4 - - - - - - -
04/01:30am 14.1 SW 19 26 - - 3.4 - - - - - - -
04/01:00am 14.0 SW 18 25 - - 3.2 - - - - - - -
04/12:30am 13.9 SW 21 27 - - 3.2 - - - - - - -
04/12:10am 14.2 SSW 22 35 - - 3.0 - - - - - - -
04/12:00am 13.9 SW 20 28 - - 3.0 Recent precip. - - - - - -
 
Date/Time
EST
Temp

°C
Wind Pressure Rain
since 9am
mm
Weather Cloud Vis
km
Sea
Height
m
Swell
Dir
 
Speed
knots
Gust
knots
hPa Trend Height
m
Period
s
Dir
03/11:30pm 14.3 SSW 21 28 - - 2.8 - - - - - - -
03/11:00pm 14.5 SW 19 27 - - 2.8 - - - - - - -
03/10:35pm 14.6 SW 18 31 - - 2.8 - - - - - - -
03/10:30pm 14.2 SW 16 25 - - 2.8 - - - - - - -
03/10:11pm 14.3 SW 17 28 - - 2.8 - - - - - - -
03/10:00pm 14.1 SW 18 27 - - 2.8 - - - - - - -
03/09:43pm 14.5 SW 21 31 - - 2.6 - - - - - - -
03/09:30pm 14.5 SW 19 25 - - 2.6 - - - - - - -
03/09:01pm 14.7 SW 23 34 - - 2.6 - - - - - - -
03/09:00pm 14.6 SW 23 31 - - 2.6 - - - - - - -
03/08:50pm 14.4 SSW 22 34 - - 2.6 - - - - - - -
03/08:30pm 14.0 SSW 21 30 - - 2.6 - - - - - - -
03/08:19pm 14.0 SW 23 33 - - 2.6 - - - - - - -
03/08:00pm 13.4 SW 23 31 - - 2.6 - - - - - - -
03/07:42pm 13.3 SW 21 31 - - 2.4 - - - - - - -
03/07:30pm 13.3 SW 25 33 - - 2.4 - - - - - - -
03/07:06pm 14.6 SW 20 31 - - 2.0 - - - - - - -
03/07:00pm 14.6 SW 20 28 - - 2.0 - - - - - - -
03/06:30pm 14.3 SW 22 31 - - 2.0 - - - - - - -
03/06:02pm 15.0 SW 18 28 - - 1.8 - - - - - - -
03/06:00pm 15.0 SW 16 25 - - 1.8 - - - - - - -
03/05:56pm 14.9 SW 15 25 - - 1.8 - - - - - - -
03/05:30pm 14.2 SW 11 17 - - 1.8 - - - - - - -
03/05:00pm 13.5 SW 10 16 - - 1.8 - - - - - - -
03/04:30pm 13.8 SW 12 15 - - 1.6 - - - - - - -
03/04:00pm 13.9 SW 13 19 - - 1.0 - - - - - - -
03/03:30pm 15.3 SSW 13 22 - - 0.0 - - - - - - -
03/03:00pm 15.5 S 18 21 - - 0.0 - - - - - - -
03/02:30pm 17.7 SW 9 16 - - 0.0 - - - - - - -
03/02:00pm 19.1 WSW 11 18 - - 0.0 - - - - - - -
03/01:30pm 18.7 WSW 12 18 - - 0.0 - - - - - - -
03/01:00pm 18.8 W 13 19 - - 0.0 - - - - - - -
03/12:30pm 17.5 W 9 15 - - 0.0 - - - - - - -
03/12:00pm 17.3 W 12 19 - - 0.0 - - - - - - -
03/11:30am 17.6 WSW 14 20 - - 0.0 - - - - - - -
03/11:00am 17.4 W 9 16 - - 0.0 - - - - - - -
03/10:30am 16.9 W 9 15 - - 0.0 - - - - - - -
03/10:00am 17.3 WSW 9 14 - - 0.0 - - - - - - -
03/09:30am 17.7 WNW 4 9 - - 0.0 - - - - - - -
03/09:00am 15.9 CALM 0 2 - - 5.0 - - - - - - -
03/08:30am 15.6 W 2 5 - - 5.0 - - - - - - -
03/08:00am 14.4 WNW 4 8 - - 5.0 - - - - - - -
03/07:30am 12.8 WNW 3 6 - - 5.0 - - - - - - -
03/07:00am 11.6 WNW 5 6 - - 5.0 - - - - - - -
03/06:30am 11.1 WSW 5 6 - - 5.0 - - - - - - -
03/06:00am 11.9 WNW 5 7 - - 5.0 - - - - - - -
03/05:30am 12.5 WNW 6 7 - - 5.0 - - - - - - -
03/05:00am 11.4 W 6 9 - - 5.0 - - - - - - -
03/04:30am 11.2 W 3 4 - - 5.0 - - - - - - -
03/04:00am 11.3 WNW 5 8 - - 5.0 - - - - - - -
03/03:30am 11.2 NW 5 6 - - 5.0 - - - - - - -
03/03:00am 11.8 NNW 2 4 - - 4.8 Recent precip. - - - - - -
03/02:30am 11.7 N 3 5 - - 4.6 - - - - - - -
03/02:00am 11.7 NNW 2 3 - - 3.8 - - - - - - -
03/01:30am 11.8 WNW 3 5 - - 3.4 - - - - - - -
03/01:00am 12.1 NW 6 8 - - 2.2 - - - - - - -
03/12:30am 12.9 NNW 3 7 - - 1.0 - - - - - - -
03/12:00am 13.9 WNW 7 9 - - 0.0 - - - - - - -
 
Date/Time
EST
Temp

°C
Wind Pressure Rain
since 9am
mm
Weather Cloud Vis
km
Sea
Height
m
Swell
Dir
 
Speed
knots
Gust
knots
hPa Trend Height
m
Period
s
Dir
02/11:30pm 13.6 NW 7 9 - - 0.0 - - - - - - -
02/11:00pm 13.5 NW 3 5 - - 0.0 - - - - - - -
02/10:30pm 13.7 NNW 3 5 - - 0.0 - - - - - - -
02/10:00pm 14.5 N 3 5 - - 0.0 - - - - - - -
02/09:30pm 14.7 NNW 5 8 - - 0.0 - - - - - - -
02/09:00pm 14.5 NNW 5 9 - - 0.0 - - - - - - -
02/08:30pm 13.7 NW 3 4 - - 0.0 - - - - - - -
02/08:00pm 13.3 WNW 3 5 - - 0.0 - - - - - - -
02/07:30pm 13.7 NW 8 11 - - 0.0 - - - - - - -
02/07:00pm 14.4 NW 4 6 - - 0.0 - - - - - - -
02/06:30pm 14.7 NW 5 7 - - 0.0 - - - - - - -
02/06:00pm 16.2 N 11 16 - - 0.0 - - - - - - -
02/05:30pm 16.1 NNE 11 15 - - 0.0 - - - - - - -
02/05:00pm 16.3 NNE 12 17 - - 0.0 - - - - - - -
02/04:30pm 16.5 NNE 11 15 - - 0.0 - - - - - - -
02/04:00pm 16.8 NNE 13 18 - - 0.0 - - - - - - -

Other Formats:

Comma delimited format used in spreadsheet applications
http://www.bom.gov.au/fwo/IDN60701/IDN60701.95749.axf

JavaScript Object Notation format (JSON) in row-major order
http://www.bom.gov.au/fwo/IDN60701/IDN60701.95749.json